Time;durP1;ratioP1;P1;durP2;ratioP2;P2;SDS_P1;SDS_P2;PMS_P1;PMS_P2;Temp;Humidity;BMP_temperature;BMP_pressure;BME280_temperature;BME280_humidity;BME280_pressure;Samples;Min_cycle;Max_cycle;Signal;HPM_P1;HPM_P2
2020/01/03 00:00:17;;;;;;;13.5;9.3;;;;;;;-0.47;78.37988;947.2363;;;;
2020/01/03 00:05:15;;;;;;;14.5;9.3;;;;;;;-0.23;77.52344;947.2316;;;;
2020/01/03 00:07:32;;;;;;;15.1;10.6;;;;;;;-0.32;77.5498;947.2774;;;;
2020/01/03 00:09:57;;;;;;;15.8;10.7;;;;;;;-0.26;77.30469;947.2844;;;;
2020/01/03 00:12:22;;;;;;;20.9;13.9;;;;;;;-0.2;77.14844;947.2792;;;;
2020/01/03 00:14:48;;;;;;;15;10.4;;;;;;;-0.33;77.28027;947.314;;;;
2020/01/03 00:17:14;;;;;;;13.3;9.3;;;;;;;-0.57;78.15918;947.2877;;;;
2020/01/03 00:19:40;;;;;;;16.7;10.9;;;;;;;-0.67;78.49805;947.2659;;;;
2020/01/03 00:22:05;;;;;;;14.6;9.8;;;;;;;-0.65;78.84668;947.2508;;;;
2020/01/03 00:24:30;;;;;;;12.7;8.1;;;;;;;-0.71;78.80273;947.1555;;;;
2020/01/03 00:26:56;;;;;;;11.7;6.8;;;;;;;-0.85;79.6748;947.2004;;;;
2020/01/03 00:29:21;;;;;;;9.6;6;;;;;;;-0.83;80.04688;947.2356;;;;
2020/01/03 00:31:46;;;;;;;11.7;6.7;;;;;;;-0.85;80.27539;947.2033;;;;
2020/01/03 00:34:12;;;;;;;12.2;7.2;;;;;;;-0.85;80.0752;947.1799;;;;
2020/01/03 00:36:37;;;;;;;12.3;7.8;;;;;;;-0.87;80.06055;947.2967;;;;
2020/01/03 00:39:02;;;;;;;10.3;6.4;;;;;;;-0.85;80.11914;947.2877;;;;
2020/01/03 00:41:27;;;;;;;10;6.6;;;;;;;-0.78;79.54395;947.3206;;;;
2020/01/03 00:43:52;;;;;;;11.9;7.6;;;;;;;-0.73;79.03125;947.2141;;;;
2020/01/03 00:46:17;;;;;;;13.9;8.7;;;;;;;-0.75;78.64844;947.2434;;;;
2020/01/03 00:48:43;;;;;;;15;8.2;;;;;;;-0.9;79.14258;947.2484;;;;
2020/01/03 00:51:13;;;;;;;13.3;7.5;;;;;;;-1;79.83496;947.3189;;;;
2020/01/03 00:53:33;;;;;;;9.4;5.7;;;;;;;-0.95;80.51172;947.3672;;;;
2020/01/03 00:55:58;;;;;;;5.8;3.9;;;;;;;-1.01;81.17773;947.387;;;;
2020/01/03 00:58:23;;;;;;;7.6;4.7;;;;;;;-0.82;80.41406;947.3663;;;;
2020/01/03 01:00:48;;;;;;;7.5;4.7;;;;;;;-0.79;79.78711;947.2914;;;;
2020/01/03 01:03:13;;;;;;;7.3;4.4;;;;;;;-0.76;80.09375;947.3622;;;;
2020/01/03 01:05:38;;;;;;;6.5;4;;;;;;;-0.52;79.37109;947.3563;;;;
2020/01/03 01:08:03;;;;;;;7.4;4.1;;;;;;;-0.35;78.5459;947.3875;;;;
2020/01/03 01:10:28;;;;;;;6.4;3.6;;;;;;;-0.3;78.03125;947.438;;;;
2020/01/03 01:12:54;;;;;;;10;5.3;;;;;;;-0.23;78.51367;947.3333;;;;
2020/01/03 01:15:19;;;;;;;8.4;4.3;;;;;;;-0.14;77.70508;947.3953;;;;
2020/01/03 01:17:44;;;;;;;13.6;7;;;;;;;-0.15;77.25781;947.3954;;;;
2020/01/03 01:20:09;;;;;;;15.2;7.9;;;;;;;-0.26;77.45898;947.3389;;;;
2020/01/03 01:22:34;;;;;;;17.6;8.6;;;;;;;-0.35;77.87891;947.3869;;;;
2020/01/03 01:24:59;;;;;;;15.9;8.6;;;;;;;-0.25;77.5293;947.3615;;;;
2020/01/03 01:27:24;;;;;;;17;8.8;;;;;;;-0.15;77.11328;947.373;;;;
2020/01/03 01:29:50;;;;;;;14.3;7.5;;;;;;;-0.11;76.61914;947.3286;;;;
2020/01/03 01:32:28;;;;;;;20.6;9.6;;;;;;;-0.15;76.90137;947.408;;;;
2020/01/03 01:34:40;;;;;;;18.5;9.2;;;;;;;-0.19;76.74902;947.3265;;;;
2020/01/03 01:37:05;;;;;;;13.8;7.1;;;;;;;-0.18;76.58496;947.2623;;;;
2020/01/03 01:39:30;;;;;;;12.1;7;;;;;;;-0.34;76.98926;947.345;;;;
2020/01/03 01:41:55;;;;;;;10;6.5;;;;;;;-0.46;77.56934;947.3575;;;;
2020/01/03 01:44:20;;;;;;;10.4;6.1;;;;;;;-0.36;77.41895;947.3511;;;;
2020/01/03 01:46:45;;;;;;;9;5.4;;;;;;;-0.23;76.88672;947.4755;;;;
2020/01/03 01:49:10;;;;;;;8.7;5.7;;;;;;;-0.2;76.74707;947.3772;;;;
2020/01/03 01:51:35;;;;;;;8.7;5.2;;;;;;;-0.17;76.77637;947.3848;;;;
2020/01/03 01:54:00;;;;;;;10;5.7;;;;;;;-0.12;76.97363;947.3098;;;;
2020/01/03 01:56:26;;;;;;;9.4;5.2;;;;;;;-0.07;77.02832;947.423;;;;
2020/01/03 01:58:51;;;;;;;8.3;4.9;;;;;;;-0.06;77.28418;947.2892;;;;
2020/01/03 02:01:16;;;;;;;8.4;5;;;;;;;-0.1;78.55957;947.2713;;;;
2020/01/03 02:03:41;;;;;;;9.5;4.9;;;;;;;-0.08;77.99512;947.2742;;;;
2020/01/03 02:06:06;;;;;;;7.5;4.4;;;;;;;-0.01;77.34961;947.1353;;;;
2020/01/03 02:08:31;;;;;;;7.7;4.4;;;;;;;-0.2;77.4375;946.9709;;;;
2020/01/03 02:10:57;;;;;;;8.7;4.3;;;;;;;-0.38;78.23926;946.9774;;;;
2020/01/03 02:13:22;;;;;;;7.8;4.3;;;;;;;-0.41;78.5127;946.8806;;;;
2020/01/03 02:15:47;;;;;;;7.3;4.5;;;;;;;-0.49;79.03125;946.8333;;;;
2020/01/03 02:18:12;;;;;;;6.7;4;;;;;;;-0.41;78.91309;946.747;;;;
2020/01/03 02:20:37;;;;;;;6.9;3.9;;;;;;;-0.25;79.31055;946.7483;;;;
2020/01/03 02:23:02;;;;;;;6.3;4.1;;;;;;;-0.23;78.73535;946.7941;;;;
2020/01/03 02:25:27;;;;;;;7.9;4.3;;;;;;;-0.35;78.67969;946.7584;;;;
2020/01/03 02:27:52;;;;;;;6.7;4.1;;;;;;;-0.31;78.41895;946.7695;;;;
2020/01/03 02:30:17;;;;;;;8.4;4.6;;;;;;;-0.42;78.58887;946.7758;;;;
2020/01/03 02:32:42;;;;;;;6.9;4.2;;;;;;;-0.54;79.13184;946.7495;;;;
2020/01/03 02:35:08;;;;;;;7.6;4.3;;;;;;;-0.7;79.69238;946.7751;;;;
2020/01/03 02:37:33;;;;;;;8.9;6.9;;;;;;;-0.64;79.69238;946.7593;;;;
2020/01/03 02:39:58;;;;;;;6.6;4.2;;;;;;;-0.56;79.35352;946.758;;;;
2020/01/03 02:42:29;;;;;;;7.4;4;;;;;;;-0.33;78.42871;946.7738;;;;
2020/01/03 02:44:48;;;;;;;6.6;4;;;;;;;-0.22;77.87988;946.6942;;;;
2020/01/03 02:47:13;;;;;;;7.3;3.6;;;;;;;-0.49;78.75488;946.6906;;;;
2020/01/03 02:49:38;;;;;;;6.3;3.4;;;;;;;-0.52;79.42676;946.6423;;;;
2020/01/03 02:52:29;;;;;;;6.6;3.7;;;;;;;-0.44;79.41992;946.6106;;;;
2020/01/03 02:57:10;;;;;;;5.6;3.4;;;;;;;-0.16;79.46094;946.543;;;;
2020/01/03 02:59:24;;;;;;;6.1;3.8;;;;;;;-0.08;78.2168;946.6298;;;;
2020/01/03 03:01:50;;;;;;;6.4;3.7;;;;;;;-0.07;78.24219;946.6408;;;;
2020/01/03 03:04:09;;;;;;;6.6;4;;;;;;;-0.02;77.91797;946.7231;;;;
2020/01/03 03:06:34;;;;;;;6.4;3.7;;;;;;;0.03;77.80371;946.6705;;;;
2020/01/03 03:08:59;;;;;;;6.6;3.8;;;;;;;0.01;77.81152;946.6774;;;;
2020/01/03 03:11:24;;;;;;;6.6;3.6;;;;;;;-0.03;78.03711;946.6658;;;;
2020/01/03 03:13:49;;;;;;;5.7;3.9;;;;;;;0.07;77.90137;946.7329;;;;
2020/01/03 03:16:14;;;;;;;5.7;3.7;;;;;;;0.05;77.96289;946.6696;;;;
2020/01/03 03:18:39;;;;;;;5.7;3.6;;;;;;;0.11;77.72754;946.7341;;;;
2020/01/03 03:21:05;;;;;;;5.5;3.6;;;;;;;0.2;77.49902;946.6536;;;;
2020/01/03 03:23:30;;;;;;;5.6;3.6;;;;;;;0.34;77.29199;946.6764;;;;
2020/01/03 03:25:55;;;;;;;6.7;3.9;;;;;;;0.45;77.01074;946.5989;;;;
2020/01/03 03:28:20;;;;;;;5.9;3.4;;;;;;;0.52;76.44336;946.6072;;;;
2020/01/03 03:30:45;;;;;;;4.9;3.5;;;;;;;0.58;76.56543;946.6434;;;;
2020/01/03 03:33:10;;;;;;;4.7;3.3;;;;;;;0.6;76.1123;946.5939;;;;
2020/01/03 03:35:35;;;;;;;4.9;3.4;;;;;;;0.56;76.40723;946.7428;;;;
2020/01/03 03:38:00;;;;;;;6.5;3.9;;;;;;;0.52;77.88281;946.7112;;;;
2020/01/03 03:40:25;;;;;;;5.7;3.4;;;;;;;0.53;77.58105;946.7877;;;;
2020/01/03 03:42:50;;;;;;;6.2;3.8;;;;;;;0.55;77.17383;946.7438;;;;
2020/01/03 03:45:16;;;;;;;9.5;4.9;;;;;;;0.57;77.01074;946.7303;;;;
2020/01/03 03:47:41;;;;;;;7.5;3.9;;;;;;;0.64;76.54297;946.7139;;;;
2020/01/03 03:50:50;;;;;;;7.5;4.1;;;;;;;0.63;76.56348;946.8195;;;;
2020/01/03 03:52:34;;;;;;;7.3;4;;;;;;;0.49;76.58203;946.7508;;;;
2020/01/03 03:54:56;;;;;;;7.6;4.1;;;;;;;0.36;77.15137;946.7313;;;;
2020/01/03 03:57:21;;;;;;;5.9;3.8;;;;;;;0.27;77.88086;946.6542;;;;
2020/01/03 03:59:46;;;;;;;5.5;3.5;;;;;;;0.22;78.08398;946.6414;;;;
2020/01/03 04:02:30;;;;;;;8.2;3.4;;;;;;;-0.07;79.2666;946.6339;;;;
2020/01/03 04:04:55;;;;;;;5.3;3.6;;;;;;;0.04;79.53223;946.6211;;;;
2020/01/03 04:07:20;;;;;;;5.9;3.3;;;;;;;0.08;78.97266;946.6245;;;;
2020/01/03 04:09:45;;;;;;;5.9;3.6;;;;;;;0.08;78.92578;946.5641;;;;
2020/01/03 04:12:10;;;;;;;6.4;3.6;;;;;;;0.24;78.27637;946.6458;;;;
2020/01/03 04:14:35;;;;;;;5.7;3.5;;;;;;;0.39;77.73633;946.6923;;;;
2020/01/03 04:17:00;;;;;;;5;3.3;;;;;;;0.44;77.22266;946.6534;;;;
2020/01/03 04:19:25;;;;;;;5.9;3.4;;;;;;;0.37;77.4082;946.683;;;;
2020/01/03 04:21:50;;;;;;;4.6;3.1;;;;;;;0.3;77.6084;946.6517;;;;
2020/01/03 04:24:16;;;;;;;5.3;3.2;;;;;;;0.28;77.61621;946.5471;;;;
2020/01/03 04:26:41;;;;;;;5.5;3.7;;;;;;;0.33;77.71191;946.5912;;;;
2020/01/03 04:29:06;;;;;;;7.6;3.7;;;;;;;0.34;77.75977;946.552;;;;
2020/01/03 04:31:31;;;;;;;5.4;3.5;;;;;;;0.41;77.76367;946.5632;;;;
2020/01/03 04:33:56;;;;;;;5.6;3.4;;;;;;;0.52;77.02344;946.5975;;;;
2020/01/03 04:36:21;;;;;;;5;3.3;;;;;;;0.43;77.09668;946.5729;;;;
2020/01/03 04:38:46;;;;;;;5.5;3.5;;;;;;;0.21;77.88184;946.538;;;;
2020/01/03 04:41:12;;;;;;;7.7;3.5;;;;;;;0.21;78.04688;946.4625;;;;
2020/01/03 04:43:37;;;;;;;4.2;3;;;;;;;0.25;78.09961;946.4778;;;;
2020/01/03 04:46:03;;;;;;;6.1;3.6;;;;;;;0.2;78.03613;946.3692;;;;
2020/01/03 04:48:28;;;;;;;6.4;3.9;;;;;;;0.14;78.34766;946.5338;;;;
2020/01/03 04:50:54;;;;;;;5.8;3.1;;;;;;;0.1;78.65137;946.4611;;;;
2020/01/03 04:53:19;;;;;;;4.3;2.9;;;;;;;0.02;79.11523;946.4936;;;;
2020/01/03 04:55:44;;;;;;;5.1;2.8;;;;;;;-0.1;79.60645;946.4363;;;;
2020/01/03 04:58:09;;;;;;;4.8;2.8;;;;;;;-0.04;79.71777;946.4836;;;;
2020/01/03 05:00:35;;;;;;;4.6;2.7;;;;;;;-0.19;80.22266;946.4756;;;;
2020/01/03 05:03:00;;;;;;;5.4;3.3;;;;;;;-0.18;80.21484;946.4939;;;;
2020/01/03 05:05:25;;;;;;;4.8;3;;;;;;;-0.26;80.72266;946.3845;;;;
2020/01/03 05:07:51;;;;;;;3.8;2.9;;;;;;;-0.19;80.49219;946.455;;;;
2020/01/03 05:10:17;;;;;;;4.5;3;;;;;;;-0.25;80.77832;946.3088;;;;
2020/01/03 05:12:42;;;;;;;4.5;3.1;;;;;;;-0.28;81.0752;946.3275;;;;
2020/01/03 05:15:08;;;;;;;4.2;3;;;;;;;-0.31;81.29102;946.4562;;;;
2020/01/03 05:17:33;;;;;;;4.2;2.8;;;;;;;-0.29;81.36133;946.353;;;;
2020/01/03 05:19:58;;;;;;;4.4;2.9;;;;;;;-0.28;81.32031;946.3401;;;;
2020/01/03 05:22:23;;;;;;;3.5;2.7;;;;;;;-0.31;81.4707;946.3119;;;;
2020/01/03 05:24:50;;;;;;;5.1;3.2;;;;;;;-0.32;81.44531;946.3679;;;;
2020/01/03 05:27:15;;;;;;;4.3;2.7;;;;;;;-0.45;82.05566;946.3972;;;;
2020/01/03 05:29:40;;;;;;;3.9;2.2;;;;;;;-0.49;82.4375;946.3745;;;;
2020/01/03 05:32:06;;;;;;;4;2.6;;;;;;;-0.41;82.0957;946.3049;;;;
2020/01/03 05:34:31;;;;;;;4.5;2.6;;;;;;;-0.41;81.85059;946.2767;;;;
2020/01/03 05:36:56;;;;;;;3.2;2.5;;;;;;;-0.38;81.75781;946.2277;;;;
2020/01/03 05:39:22;;;;;;;3.3;2.3;;;;;;;-0.36;81.9707;946.2715;;;;
2020/01/03 05:41:49;;;;;;;4.3;2.6;;;;;;;-0.31;81.92578;946.2891;;;;
2020/01/03 05:44:14;;;;;;;5.1;3.1;;;;;;;-0.36;82.09473;946.3109;;;;
2020/01/03 05:47:00;;;;;;;10.9;6.8;;;;;;;-0.43;82.40332;946.2877;;;;
2020/01/03 05:49:09;;;;;;;14.5;7.9;;;;;;;-0.37;82.14941;946.2899;;;;
2020/01/03 05:51:28;;;;;;;10.9;6.8;;;;;;;-0.31;81.63672;946.35;;;;
2020/01/03 05:53:53;;;;;;;10.3;6.3;;;;;;;-0.3;81.31738;946.26;;;;
2020/01/03 05:56:18;;;;;;;9.8;6.2;;;;;;;-0.35;81.50684;946.2392;;;;
2020/01/03 05:58:43;;;;;;;13.3;8;;;;;;;-0.23;81.0957;946.3354;;;;
2020/01/03 06:01:08;;;;;;;19.3;11.1;;;;;;;-0.21;80.87598;946.3458;;;;
2020/01/03 06:03:33;;;;;;;12.8;6.9;;;;;;;-0.28;81.08496;946.274;;;;
2020/01/03 06:05:58;;;;;;;5.7;3.7;;;;;;;-0.34;81.36426;946.1666;;;;
2020/01/03 06:08:23;;;;;;;5.1;3.5;;;;;;;-0.42;81.62695;946.2294;;;;
2020/01/03 06:10:48;;;;;;;5.9;3.5;;;;;;;-0.44;81.85449;946.1403;;;;
2020/01/03 06:13:14;;;;;;;8.7;5.1;;;;;;;-0.47;81.9502;946.2028;;;;
2020/01/03 06:15:39;;;;;;;5.1;3.7;;;;;;;-0.44;82.04395;946.241;;;;
2020/01/03 06:18:04;;;;;;;5.5;3.2;;;;;;;-0.37;81.46973;946.1882;;;;
2020/01/03 06:20:29;;;;;;;3.7;2.9;;;;;;;-0.46;81.86426;946.17;;;;
2020/01/03 06:22:54;;;;;;;5;3.1;;;;;;;-0.41;81.74902;946.2977;;;;
2020/01/03 06:25:28;;;;;;;4.9;2.7;;;;;;;-0.39;81.75391;946.1906;;;;
2020/01/03 06:27:53;;;;;;;4.9;3.1;;;;;;;-0.24;81.14941;946.3051;;;;
2020/01/03 06:30:18;;;;;;;5.6;3.2;;;;;;;-0.17;80.68457;946.2159;;;;
2020/01/03 06:32:43;;;;;;;5.5;3.5;;;;;;;-0.04;80.59766;946.235;;;;
2020/01/03 06:35:08;;;;;;;9.6;6.3;;;;;;;-0.05;80.29492;946.1917;;;;
2020/01/03 06:37:33;;;;;;;11.7;6.5;;;;;;;-0.04;80.31836;946.1892;;;;
2020/01/03 06:39:58;;;;;;;12.6;6.9;;;;;;;-0.1;80.72949;946.2043;;;;
2020/01/03 06:42:23;;;;;;;14.7;8.3;;;;;;;-0.17;80.43945;946.2894;;;;
2020/01/03 06:44:48;;;;;;;15.9;10.2;;;;;;;-0.22;80.84277;946.2062;;;;
2020/01/03 06:47:14;;;;;;;16.7;11.3;;;;;;;-0.26;82.73633;946.3458;;;;
2020/01/03 06:49:39;;;;;;;11.9;8;;;;;;;-0.39;82.08789;946.2745;;;;
2020/01/03 06:52:04;;;;;;;8.5;6.2;;;;;;;-0.39;81.71094;946.3224;;;;
2020/01/03 06:54:29;;;;;;;9.2;6.2;;;;;;;-0.3;81.43945;946.2552;;;;
2020/01/03 06:56:54;;;;;;;8;4.8;;;;;;;-0.31;81.05762;946.2386;;;;
2020/01/03 06:59:19;;;;;;;9.3;6.1;;;;;;;-0.24;80.69336;946.3795;;;;
2020/01/03 07:01:50;;;;;;;12.1;8.4;;;;;;;-0.25;80.54688;946.343;;;;
2020/01/03 07:04:36;;;;;;;9.7;7.3;;;;;;;-0.39;81.33105;946.2361;;;;
2020/01/03 07:06:42;;;;;;;11.2;7;;;;;;;-0.44;81.58789;946.3192;;;;
2020/01/03 07:09:00;;;;;;;9.4;6.9;;;;;;;-0.54;81.80371;946.2916;;;;
2020/01/03 07:11:25;;;;;;;10.8;7.3;;;;;;;-0.42;82.19434;946.2141;;;;
2020/01/03 07:13:50;;;;;;;9.5;6.8;;;;;;;-0.39;81.36621;946.4194;;;;
2020/01/03 07:16:15;;;;;;;12;7.3;;;;;;;-0.43;81.48047;946.2374;;;;
2020/01/03 07:18:40;;;;;;;11.4;7.2;;;;;;;-0.27;80.79883;946.2781;;;;
2020/01/03 07:21:05;;;;;;;9.3;5.9;;;;;;;-0.3;80.51563;946.3404;;;;
2020/01/03 07:23:31;;;;;;;10.1;6.6;;;;;;;-0.48;81.2041;946.4174;;;;
2020/01/03 07:25:56;;;;;;;16.8;10.5;;;;;;;-0.39;83.36816;946.3853;;;;
2020/01/03 07:28:21;;;;;;;17.2;11.7;;;;;;;-0.38;82.10254;946.3784;;;;
2020/01/03 07:30:47;;;;;;;16.6;11.1;;;;;;;-0.41;83.44238;946.3887;;;;
2020/01/03 07:33:12;;;;;;;19.4;11.6;;;;;;;-0.29;82.69727;946.3917;;;;
2020/01/03 07:35:37;;;;;;;17;10.2;;;;;;;-0.29;81.71777;946.2449;;;;
2020/01/03 07:38:02;;;;;;;12.7;8.5;;;;;;;-0.33;81.65527;946.2844;;;;
2020/01/03 07:40:28;;;;;;;14.7;8.9;;;;;;;-0.28;80.875;946.2581;;;;
2020/01/03 07:42:53;;;;;;;14.4;8.9;;;;;;;-0.35;80.79492;946.217;;;;
2020/01/03 07:45:18;;;;;;;14.4;9.6;;;;;;;-0.36;80.94824;946.2358;;;;
2020/01/03 07:47:43;;;;;;;14.6;9.9;;;;;;;-0.34;80.91895;946.2036;;;;
2020/01/03 07:50:08;;;;;;;12.2;8.9;;;;;;;-0.35;81.11719;946.1406;;;;
2020/01/03 07:52:33;;;;;;;15;10.9;;;;;;;-0.26;80.86719;946.1661;;;;
2020/01/03 07:54:59;;;;;;;14.2;8.5;;;;;;;-0.29;80.76074;946.1423;;;;
2020/01/03 07:57:24;;;;;;;12.5;8.2;;;;;;;-0.3;80.7832;946.0566;;;;
2020/01/03 07:59:50;;;;;;;15.6;9.2;;;;;;;-0.25;80.81152;946.0662;;;;
2020/01/03 08:02:15;;;;;;;16.1;10.5;;;;;;;-0.2;80.82422;946.0709;;;;
2020/01/03 08:04:40;;;;;;;17.8;11;;;;;;;-0.13;80.41309;946.0114;;;;
2020/01/03 08:07:06;;;;;;;17.1;10;;;;;;;-0.11;80.37207;946.0105;;;;
2020/01/03 08:09:31;;;;;;;17.2;10.4;;;;;;;-0.09;80.3877;945.92;;;;
2020/01/03 08:11:57;;;;;;;15.1;9.9;;;;;;;-0.02;80.05664;945.9403;;;;
2020/01/03 08:14:23;;;;;;;15.4;10.1;;;;;;;0.11;79.53418;945.8879;;;;
2020/01/03 08:16:48;;;;;;;11.1;7;;;;;;;0.21;79.11914;945.9278;;;;
2020/01/03 08:19:13;;;;;;;12.2;7.9;;;;;;;0.58;77.89453;945.8884;;;;
2020/01/03 08:21:40;;;;;;;11.6;6.9;;;;;;;1.18;74.87598;945.8262;;;;
2020/01/03 08:24:05;;;;;;;10.4;7.6;;;;;;;1.37;74.19434;945.8365;;;;
2020/01/03 08:26:30;;;;;;;10.5;7.2;;;;;;;1.49;73.72461;945.7845;;;;
2020/01/03 08:28:55;;;;;;;7.7;5.3;;;;;;;1.85;72.24219;945.7853;;;;
2020/01/03 08:31:20;;;;;;;7.5;4.6;;;;;;;2.27;70.69043;945.6926;;;;
2020/01/03 08:33:47;;;;;;;6.6;4.3;;;;;;;2.81;68.87305;945.6605;;;;
2020/01/03 08:36:12;;;;;;;7.9;3.9;;;;;;;3.74;65.64258;945.6282;;;;
2020/01/03 08:38:37;;;;;;;7.1;4.1;;;;;;;4.76;61.65332;945.4866;;;;
2020/01/03 08:41:02;;;;;;;9.1;5.4;;;;;;;5.91;58.23926;945.6359;;;;
2020/01/03 08:43:27;;;;;;;16.3;10.6;;;;;;;6.76;54.84668;945.5854;;;;
2020/01/03 08:45:52;;;;;;;14.9;8.5;;;;;;;5.52;57.92578;945.5602;;;;
2020/01/03 08:48:18;;;;;;;10.7;7;;;;;;;5.02;59.4248;945.5226;;;;
2020/01/03 08:50:43;;;;;;;12.9;7.9;;;;;;;4.17;62.69336;945.5554;;;;
2020/01/03 08:53:08;;;;;;;13;7.5;;;;;;;3.24;65.11523;945.4888;;;;
2020/01/03 08:55:34;;;;;;;11.1;6.5;;;;;;;2.87;67.7168;945.5364;;;;
2020/01/03 08:58:10;;;;;;;12.2;7;;;;;;;2.65;68.84863;945.4651;;;;
2020/01/03 09:00:26;;;;;;;95.9;66.7;;;;;;;2.46;69.79199;945.5119;;;;
2020/01/03 09:02:59;;;;;;;47.4;28.4;;;;;;;2.22;70.53613;945.4952;;;;
2020/01/03 09:05:16;;;;;;;12.2;7.2;;;;;;;2.02;71.14258;945.4877;;;;
2020/01/03 09:07:45;;;;;;;10.6;7.1;;;;;;;2.06;71.67285;945.4637;;;;
2020/01/03 09:10:22;;;;;;;15.2;9;;;;;;;2.06;72.50293;945.4364;;;;
2020/01/03 09:12:30;;;;;;;10.1;6.6;;;;;;;2.07;72.34668;945.421;;;;
2020/01/03 09:14:55;;;;;;;9.5;4.4;;;;;;;2.12;71.88672;945.4264;;;;
2020/01/03 09:17:23;;;;;;;6.4;4;;;;;;;2.29;71.81348;945.3417;;;;
2020/01/03 09:19:48;;;;;;;4.3;2.9;;;;;;;2.39;70.7002;945.3039;;;;
2020/01/03 09:22:13;;;;;;;31.1;17.7;;;;;;;2.57;71.08887;945.2559;;;;
2020/01/03 09:24:38;;;;;;;4.6;3;;;;;;;2.7;70.4043;945.2258;;;;
2020/01/03 09:27:03;;;;;;;469.5;295.5;;;;;;;2.95;70.19727;945.1509;;;;
2020/01/03 09:29:29;;;;;;;11.1;7.3;;;;;;;3.36;70.71387;945.0341;;;;
2020/01/03 09:31:54;;;;;;;258;149.6;;;;;;;3.24;68.43848;945.0457;;;;
2020/01/03 09:34:19;;;;;;;16;9.8;;;;;;;3.37;68.24707;945.0748;;;;
2020/01/03 09:36:44;;;;;;;307.8;165.5;;;;;;;3.52;67.68555;945.0536;;;;
2020/01/03 09:39:09;;;;;;;192;107;;;;;;;3.57;66.81836;945.0056;;;;
2020/01/03 09:41:34;;;;;;;101.8;58.2;;;;;;;3.76;66.83691;945.0176;;;;
2020/01/03 09:44:00;;;;;;;8.7;5.5;;;;;;;3.77;64.49902;944.9598;;;;
2020/01/03 09:46:25;;;;;;;14.2;9.8;;;;;;;4.1;64.95508;944.9274;;;;
2020/01/03 09:48:50;;;;;;;18.1;5.5;;;;;;;4.15;65.10742;944.8931;;;;
2020/01/03 09:51:15;;;;;;;10.8;5.7;;;;;;;4.26;65.03711;944.8071;;;;
2020/01/03 09:53:40;;;;;;;10.8;6.6;;;;;;;4.32;65.40527;944.8025;;;;
2020/01/03 09:56:06;;;;;;;10.4;6.6;;;;;;;4.38;65.64063;944.7839;;;;
2020/01/03 09:58:30;;;;;;;17;9.5;;;;;;;4.35;65.7373;944.7811;;;;
2020/01/03 10:00:56;;;;;;;15.9;10.3;;;;;;;4.41;65.98242;944.7592;;;;
2020/01/03 10:03:21;;;;;;;15.5;9.6;;;;;;;4.39;65.13477;944.6803;;;;
2020/01/03 10:05:46;;;;;;;15.6;9.2;;;;;;;4.3;64.49023;944.6178;;;;
2020/01/03 10:08:11;;;;;;;15.2;8.2;;;;;;;4.27;64.75684;944.5767;;;;
2020/01/03 10:10:36;;;;;;;16.9;10.3;;;;;;;4.4;64.62891;944.5212;;;;
2020/01/03 10:13:01;;;;;;;18.1;10;;;;;;;4.68;64.32324;944.5045;;;;
2020/01/03 10:15:26;;;;;;;14.9;8.2;;;;;;;4.99;63.03906;944.4717;;;;
2020/01/03 10:17:52;;;;;;;25.4;8.6;;;;;;;5.23;62.98535;944.4366;;;;
2020/01/03 10:20:17;;;;;;;12.6;7.3;;;;;;;5.44;62.66602;944.3354;;;;
2020/01/03 10:25:07;;;;;;;25.8;7.7;;;;;;;5.73;61.75977;944.386;;;;
2020/01/03 10:27:33;;;;;;;13.3;7;;;;;;;5.97;61.5127;944.2278;;;;
2020/01/03 10:29:58;;;;;;;15.3;7.2;;;;;;;6.2;60.61816;944.1677;;;;
2020/01/03 10:32:23;;;;;;;16;7.5;;;;;;;6.46;59.33203;944.1028;;;;
2020/01/03 10:34:48;;;;;;;22.9;8;;;;;;;6.55;59.84277;944.0609;;;;
2020/01/03 10:37:14;;;;;;;14.8;7.5;;;;;;;6.51;59.74609;944.0317;;;;
2020/01/03 10:39:40;;;;;;;18.1;8.6;;;;;;;6.53;59.9082;944.02;;;;
2020/01/03 10:42:05;;;;;;;31.2;16.1;;;;;;;6.67;59.39648;943.9894;;;;
2020/01/03 10:44:30;;;;;;;18.6;7.1;;;;;;;6.68;59.48633;944.0433;;;;
2020/01/03 10:46:55;;;;;;;9;5;;;;;;;6.68;59.66797;943.9927;;;;
2020/01/03 10:49:20;;;;;;;15.5;7.6;;;;;;;6.72;58.99512;943.9473;;;;
2020/01/03 10:51:46;;;;;;;23.4;12.6;;;;;;;6.68;60.34766;943.8377;;;;
2020/01/03 10:54:11;;;;;;;31.1;13.8;;;;;;;6.58;60.49121;943.7389;;;;
2020/01/03 10:56:37;;;;;;;61.6;28.6;;;;;;;6.72;60.34082;943.7098;;;;
2020/01/03 10:59:02;;;;;;;50.8;28.2;;;;;;;7.01;60.15625;943.7086;;;;
2020/01/03 11:01:27;;;;;;;50.9;28.1;;;;;;;7.32;59.9043;943.6312;;;;
2020/01/03 11:03:53;;;;;;;50.2;28.3;;;;;;;7.62;60.38965;943.6244;;;;
2020/01/03 11:06:18;;;;;;;44.2;22.9;;;;;;;7.79;59.43652;943.5927;;;;
2020/01/03 11:08:43;;;;;;;32.2;16.2;;;;;;;7.97;59.35938;943.7492;;;;
2020/01/03 11:11:08;;;;;;;13.7;7;;;;;;;7.67;60.95215;943.7389;;;;
2020/01/03 11:13:33;;;;;;;9;5;;;;;;;7.69;60.875;943.7395;;;;
2020/01/03 11:23:20;;;;;;;11.3;5.8;;;;;;;7.83;56.15234;943.7145;;;;
2020/01/03 11:25:39;;;;;;;9.2;4.4;;;;;;;8.02;55.79004;943.7216;;;;
2020/01/03 11:28:05;;;;;;;9.6;4.3;;;;;;;8.22;55.18164;943.7124;;;;
2020/01/03 11:30:30;;;;;;;10.7;5.1;;;;;;;8.18;56.06152;943.7378;;;;
2020/01/03 11:32:55;;;;;;;13.9;6.9;;;;;;;8.25;55.68457;943.6624;;;;
2020/01/03 11:35:21;;;;;;;13;6.7;;;;;;;8.2;56.50684;943.7598;;;;
2020/01/03 11:37:46;;;;;;;13.6;6.3;;;;;;;8.16;57.22949;943.6415;;;;
2020/01/03 11:40:11;;;;;;;27.2;6.7;;;;;;;8.09;56.77637;943.6967;;;;
2020/01/03 11:42:36;;;;;;;51.4;8.3;;;;;;;7.99;55.96875;943.7029;;;;
2020/01/03 11:45:02;;;;;;;51.2;8.3;;;;;;;7.88;56.9873;943.6921;;;;
2020/01/03 11:47:27;;;;;;;67;11.5;;;;;;;7.83;57.20801;943.7098;;;;
2020/01/03 11:49:52;;;;;;;31.1;11.1;;;;;;;7.84;56.81152;943.6981;;;;
2020/01/03 11:52:18;;;;;;;310.1;204.7;;;;;;;7.98;57.26074;943.7067;;;;
2020/01/03 11:54:44;;;;;;;38.7;15.8;;;;;;;8.01;57.06055;943.7924;;;;
2020/01/03 11:57:09;;;;;;;29.7;10.5;;;;;;;7.87;56.62207;943.7726;;;;
2020/01/03 11:59:34;;;;;;;51.8;11.1;;;;;;;7.87;57.20117;943.7609;;;;
2020/01/03 12:02:00;;;;;;;39.8;8.5;;;;;;;8.02;55.3584;943.7209;;;;
2020/01/03 12:04:25;;;;;;;22.9;6.3;;;;;;;7.94;54.21484;943.7581;;;;
2020/01/03 12:06:50;;;;;;;41.2;7.9;;;;;;;8.12;56.06445;943.7894;;;;
2020/01/03 12:09:15;;;;;;;38.9;7.4;;;;;;;8.43;55.19629;943.7717;;;;
2020/01/03 12:11:40;;;;;;;32;6.6;;;;;;;8.57;52.96484;943.6555;;;;
2020/01/03 12:14:05;;;;;;;93.4;29.9;;;;;;;8.67;53.68164;943.683;;;;
2020/01/03 12:16:30;;;;;;;264.2;105.4;;;;;;;8.92;53.34766;943.6083;;;;
2020/01/03 12:18:55;;;;;;;39.5;11.6;;;;;;;8.77;52.9209;943.5916;;;;
2020/01/03 12:21:20;;;;;;;51.9;14.5;;;;;;;8.74;54.26953;943.6345;;;;
2020/01/03 12:23:45;;;;;;;41.7;11.1;;;;;;;8.6;54.60449;943.6292;;;;
2020/01/03 12:26:10;;;;;;;27.6;10.8;;;;;;;8.42;55.54785;943.57;;;;
2020/01/03 12:28:36;;;;;;;32.4;10.3;;;;;;;8.26;55.36719;943.5491;;;;
2020/01/03 12:31:01;;;;;;;26.4;11.5;;;;;;;8.42;56.50195;943.6453;;;;
2020/01/03 12:33:26;;;;;;;25.2;12.7;;;;;;;8.6;57.32129;943.6038;;;;
2020/01/03 12:35:51;;;;;;;25.8;12.5;;;;;;;8.76;57.4668;943.7009;;;;
2020/01/03 12:38:16;;;;;;;29.5;15.3;;;;;;;8.82;54.82617;943.7449;;;;
2020/01/03 12:40:42;;;;;;;44.2;19.2;;;;;;;8.51;55.97949;943.6817;;;;
2020/01/03 12:43:07;;;;;;;68.3;23;;;;;;;8.34;57.24121;943.7595;;;;
2020/01/03 12:45:32;;;;;;;62.9;20.9;;;;;;;8.49;57.375;943.8448;;;;
2020/01/03 12:47:57;;;;;;;32.6;14.5;;;;;;;8.41;57.06836;943.8502;;;;
2020/01/03 12:50:23;;;;;;;42.2;13;;;;;;;8.31;57.09961;943.8741;;;;
2020/01/03 12:52:48;;;;;;;45.6;13;;;;;;;8.37;57.29102;943.8501;;;;
2020/01/03 12:55:13;;;;;;;40.9;10;;;;;;;8.32;56.98828;943.8904;;;;
2020/01/03 12:57:38;;;;;;;29.3;10.1;;;;;;;8.17;57.19531;943.8075;;;;
2020/01/03 13:00:03;;;;;;;33.6;10.4;;;;;;;8.03;58.18652;943.7869;;;;
2020/01/03 13:02:28;;;;;;;31;11.4;;;;;;;8.2;57.60938;943.8384;;;;
2020/01/03 13:04:53;;;;;;;32.2;12.1;;;;;;;8.26;57.77637;943.8094;;;;
2020/01/03 13:07:18;;;;;;;21.9;11.9;;;;;;;8.37;58.73242;943.8935;;;;
2020/01/03 13:09:43;;;;;;;27.4;15.1;;;;;;;8.07;57.60254;943.842;;;;
2020/01/03 13:12:09;;;;;;;38.5;16.2;;;;;;;8.17;57.70801;943.9052;;;;
2020/01/03 13:14:34;;;;;;;55.5;17.7;;;;;;;8.34;57.55859;943.9016;;;;
2020/01/03 13:16:59;;;;;;;66.4;16.7;;;;;;;8.39;56.62305;943.926;;;;
2020/01/03 13:19:25;;;;;;;35.9;13;;;;;;;8.4;56.87402;943.9856;;;;
2020/01/03 13:21:50;;;;;;;30.8;12.7;;;;;;;8.47;56.93945;944.0489;;;;
2020/01/03 13:24:15;;;;;;;66;14.4;;;;;;;8.49;56.36328;944.0385;;;;
2020/01/03 13:26:40;;;;;;;35.5;12.9;;;;;;;8.51;56.60449;943.9309;;;;
2020/01/03 13:29:12;;;;;;;45.5;12.2;;;;;;;8.66;56.3291;944.0779;;;;
2020/01/03 13:31:48;;;;;;;43.8;11.9;;;;;;;8.74;56.63477;944.1395;;;;
2020/01/03 13:34:00;;;;;;;40.6;11.5;;;;;;;8.79;57.15332;944.1527;;;;
2020/01/03 13:43:46;;;;;;;31.9;9.8;;;;;;;8.74;57.39746;944.331;;;;
2020/01/03 13:46:01;;;;;;;32.1;10.1;;;;;;;8.77;56.86523;944.3879;;;;
2020/01/03 13:48:26;;;;;;;30.6;10.1;;;;;;;8.84;58.44434;944.3544;;;;
2020/01/03 13:50:51;;;;;;;26.6;10.1;;;;;;;8.86;57.15039;944.416;;;;
2020/01/03 13:53:16;;;;;;;20.7;8.3;;;;;;;8.79;56.66504;944.4228;;;;
2020/01/03 13:55:42;;;;;;;21.5;8.8;;;;;;;8.75;55.82813;944.5137;;;;
2020/01/03 13:58:07;;;;;;;25.7;10.1;;;;;;;8.77;57.82129;944.597;;;;
2020/01/03 14:00:32;;;;;;;24.1;9.6;;;;;;;8.76;58.78711;944.6587;;;;
2020/01/03 14:02:57;;;;;;;23.7;9.3;;;;;;;8.77;58.86816;944.7321;;;;
2020/01/03 14:05:22;;;;;;;51;20.1;;;;;;;8.78;58.12891;944.7527;;;;
2020/01/03 14:07:47;;;;;;;37.9;14.5;;;;;;;8.74;58.37402;944.7358;;;;
2020/01/03 14:10:12;;;;;;;34.9;13;;;;;;;8.73;58.21387;944.8358;;;;
2020/01/03 14:12:37;;;;;;;69.9;17.5;;;;;;;8.53;59.04004;944.865;;;;
2020/01/03 14:15:03;;;;;;;50.8;12.8;;;;;;;8.26;60.10449;944.8162;;;;
2020/01/03 14:17:29;;;;;;;54.7;13.2;;;;;;;8.17;60.34082;944.745;;;;
2020/01/03 14:19:54;;;;;;;42;16.1;;;;;;;8.12;60.82227;944.7897;;;;
2020/01/03 14:22:19;;;;;;;55.8;15.8;;;;;;;8.13;61.48242;944.8052;;;;
2020/01/03 14:24:45;;;;;;;56.2;17.8;;;;;;;8.19;61.72852;944.8851;;;;
2020/01/03 14:27:10;;;;;;;24.5;11.4;;;;;;;8.12;60.08301;944.8562;;;;
2020/01/03 14:29:35;;;;;;;50.4;25.1;;;;;;;8.06;60.05273;944.8166;;;;